createdAt,value
2023-03-04T00:02:19.408Z,55.40
2023-03-04T00:04:51.236Z,55.40
2023-03-04T00:07:23.043Z,58.40
2023-03-04T00:09:54.857Z,61.30
2023-03-04T00:12:26.614Z,56.10
2023-03-04T00:15:00.946Z,56.20
2023-03-04T00:17:32.811Z,61.60
2023-03-04T00:20:05.052Z,60.60
2023-03-04T00:22:37.005Z,57.20
2023-03-04T00:25:09.015Z,60.90
2023-03-04T00:27:40.798Z,56.30
2023-03-04T00:30:15.449Z,59.80
2023-03-04T00:32:47.314Z,65.50
2023-03-04T00:35:19.162Z,64.60
2023-03-04T00:37:51.030Z,64.40
2023-03-04T00:40:23.022Z,58.90
2023-03-04T00:42:55.017Z,56.80
2023-03-04T00:45:29.497Z,56.80
2023-03-04T00:48:01.259Z,56.80
2023-03-04T00:50:33.122Z,56.80
2023-03-04T00:53:05.228Z,57.40
2023-03-04T00:55:37.352Z,56.90
2023-03-04T00:58:09.113Z,56.80
2023-03-04T01:00:43.478Z,56.70
2023-03-04T01:03:15.259Z,56.80
2023-03-04T01:05:47.093Z,56.90
2023-03-04T01:08:18.842Z,57.10
2023-03-04T01:10:50.931Z,57.20
2023-03-04T01:13:22.693Z,57.30
2023-03-04T01:15:57.750Z,57.40
2023-03-04T01:18:29.677Z,57.40
2023-03-04T01:21:01.509Z,57.60
2023-03-04T01:23:33.358Z,59.10
2023-03-04T01:26:05.249Z,61.00
2023-03-04T01:28:37.066Z,63.00
2023-03-04T01:31:11.564Z,64.80
2023-03-04T01:33:43.493Z,66.80
2023-03-04T01:36:15.319Z,67.60
2023-03-04T01:38:47.136Z,68.40
2023-03-04T01:41:23.967Z,70.20
2023-03-04T01:43:57.257Z,71.30
2023-03-04T01:46:32.015Z,74.80
2023-03-04T01:49:06.205Z,78.10
2023-03-04T01:51:38.011Z,77.90
2023-03-04T01:54:09.829Z,79.40
2023-03-04T01:56:44.097Z,80.00
2023-03-04T01:59:17.420Z,81.90
2023-03-04T02:41:04.932Z,92.10
2023-03-04T02:43:36.907Z,87.50
2023-03-04T02:46:13.863Z,85.60
2023-03-04T02:48:45.698Z,81.70
2023-03-04T02:51:17.940Z,78.50
2023-03-04T02:53:50.096Z,79.60
2023-03-04T02:56:21.879Z,81.40
2023-03-04T02:58:53.842Z,82.70
2023-03-04T03:01:31.156Z,83.40
2023-03-04T03:04:03.495Z,86.00
2023-03-04T03:06:35.836Z,86.40
2023-03-04T03:09:08.156Z,85.40
2023-03-04T03:11:40.315Z,85.60
2023-03-04T03:14:12.292Z,87.10
2023-03-04T03:16:46.983Z,88.90
2023-03-04T03:19:18.986Z,90.00
2023-03-04T03:34:42.418Z,91.00
2023-03-04T03:37:14.794Z,72.90
2023-03-04T03:39:46.954Z,59.60
2023-03-04T03:42:18.905Z,75.00
2023-03-04T03:44:50.988Z,81.20
2023-03-04T03:47:25.677Z,66.70
2023-03-04T03:49:57.638Z,71.30
2023-03-04T03:52:29.602Z,59.90
2023-03-04T03:55:02.248Z,84.70
2023-03-04T03:57:34.335Z,75.40
2023-03-04T04:00:08.709Z,73.80
2023-03-04T04:02:43.532Z,60.20
2023-03-04T04:05:16.062Z,60.30
2023-03-04T04:07:48.054Z,60.40
2023-03-04T04:10:20.718Z,61.10
2023-03-04T04:12:52.674Z,60.80
2023-03-04T04:15:24.731Z,60.80
2023-03-04T04:17:59.376Z,74.80
2023-03-04T04:20:31.556Z,72.30
2023-03-04T04:23:03.814Z,79.50
2023-03-04T04:25:35.828Z,68.70
2023-03-04T04:28:07.809Z,73.00
2023-03-04T04:30:40.262Z,71.80
2023-03-04T04:33:16.099Z,66.20
2023-03-04T04:35:48.088Z,67.60
2023-03-04T04:38:20.086Z,73.80
2023-03-04T04:40:52.064Z,64.70
2023-03-04T04:43:24.102Z,64.90
2023-03-04T04:45:56.127Z,76.70
2023-03-04T04:48:30.790Z,79.30
2023-03-04T04:51:02.762Z,76.70
2023-03-04T04:53:35.012Z,83.70
2023-03-04T04:56:10.540Z,89.50
2023-03-04T05:01:17.285Z,77.00
2023-03-04T05:03:53.347Z,79.30
2023-03-04T05:06:25.632Z,84.20
2023-03-04T05:08:57.383Z,85.70
2023-03-04T05:11:29.403Z,87.00
2023-03-04T05:14:01.398Z,90.20
2023-03-04T05:19:11.417Z,84.50
2023-03-04T06:26:22.700Z,91.70
2023-03-04T06:28:57.024Z,91.10
2023-03-04T06:31:29.144Z,90.40
2023-03-04T06:34:01.241Z,90.40
2023-03-04T06:36:33.218Z,89.90
2023-03-04T06:39:08.206Z,90.10
2023-03-04T06:41:40.372Z,90.30
2023-03-04T06:44:12.417Z,90.00
2023-03-04T06:46:44.431Z,90.00
2023-03-04T06:49:16.607Z,90.10
2023-03-04T06:51:48.567Z,89.30
2023-03-04T06:54:23.364Z,89.50
2023-03-04T06:56:55.345Z,88.90
2023-03-04T06:59:27.308Z,87.50
2023-03-04T07:01:59.436Z,86.60
2023-03-04T07:04:31.630Z,88.90
2023-03-04T07:07:03.388Z,89.50
2023-03-04T07:09:38.093Z,82.80
2023-03-04T07:12:10.142Z,88.10
2023-03-04T07:14:42.329Z,79.40
2023-03-04T07:17:14.569Z,79.40
2023-03-04T07:19:46.582Z,80.40
2023-03-04T07:22:18.629Z,88.50
2023-03-04T07:24:53.194Z,77.80
2023-03-04T07:27:25.622Z,77.80
2023-03-04T07:29:57.472Z,77.80
2023-03-04T07:32:29.352Z,78.20
2023-03-04T07:35:01.216Z,78.80
2023-03-04T07:37:33.044Z,78.60
2023-03-04T07:40:08.891Z,78.80
2023-03-04T07:42:40.744Z,78.80
2023-03-04T07:45:12.528Z,79.20
2023-03-04T07:47:44.794Z,79.60
2023-03-04T07:50:18.109Z,79.90
2023-03-04T07:52:53.518Z,79.90
2023-03-04T07:55:30.702Z,79.90
2023-03-04T07:58:04.232Z,80.10
2023-03-04T08:00:36.185Z,79.60
2023-03-04T08:03:08.183Z,79.90
2023-03-04T08:05:40.317Z,79.90
2023-03-04T08:08:12.357Z,80.50
2023-03-04T08:10:46.871Z,80.10
2023-03-04T08:13:18.880Z,80.20
2023-03-04T08:15:50.903Z,80.40
2023-03-04T08:18:23.020Z,80.70
2023-03-04T08:20:54.803Z,80.90
2023-03-04T08:23:26.861Z,80.60
2023-03-04T08:26:05.263Z,80.50
2023-03-04T08:28:37.590Z,80.50
2023-03-04T08:31:09.706Z,80.60
2023-03-04T08:33:41.563Z,80.30
2023-03-04T08:36:13.667Z,79.90
2023-03-04T08:38:45.436Z,79.90
2023-03-04T08:41:20.462Z,79.90
2023-03-04T08:43:52.295Z,80.10
2023-03-04T08:46:24.473Z,80.00
2023-03-04T08:48:56.438Z,79.90
2023-03-04T08:51:28.410Z,80.10
2023-03-04T08:54:00.669Z,79.90
2023-03-04T08:56:35.349Z,79.50
2023-03-04T08:59:07.368Z,79.90
2023-03-04T09:01:39.261Z,79.90
2023-03-04T09:04:11.098Z,80.10
2023-03-04T09:06:42.896Z,80.30
2023-03-04T09:09:14.656Z,80.60
2023-03-04T09:11:49.261Z,80.60
2023-03-04T09:14:21.297Z,81.60
2023-03-04T09:16:53.444Z,81.20
2023-03-04T09:19:25.494Z,81.70
2023-03-04T09:21:59.296Z,81.90
2023-03-04T09:24:31.332Z,82.10
2023-03-04T09:27:05.707Z,82.30
2023-03-04T09:29:37.691Z,82.70
2023-03-04T09:32:09.466Z,82.80
2023-03-04T09:34:41.714Z,82.90
2023-03-04T09:37:13.844Z,82.40
2023-03-04T09:39:45.937Z,83.00
2023-03-04T09:42:27.184Z,83.10
2023-03-04T09:44:59.853Z,83.40
2023-03-04T09:47:34.048Z,83.60
2023-03-04T09:50:08.083Z,83.70
2023-03-04T09:52:45.009Z,84.30
2023-03-04T09:55:24.023Z,84.20
2023-03-04T09:58:03.280Z,84.20
2023-03-04T10:00:42.857Z,84.50
2023-03-04T10:03:18.556Z,84.60
2023-03-04T10:05:55.293Z,84.50
2023-03-04T10:08:40.974Z,84.70
2023-03-04T10:11:18.716Z,85.00
2023-03-04T10:14:35.406Z,85.00
2023-03-04T10:17:17.436Z,85.10
2023-03-04T10:19:55.359Z,84.90
2023-03-04T10:22:33.179Z,84.90
2023-03-04T10:25:17.969Z,85.10
2023-03-04T10:27:55.128Z,85.70
2023-03-04T10:30:37.669Z,85.60
2023-03-04T10:33:17.455Z,85.70
2023-03-04T10:35:53.475Z,86.60
2023-03-04T10:38:25.731Z,86.70
2023-03-04T10:40:58.769Z,86.80
2023-03-04T10:43:30.704Z,87.30
2023-03-04T10:46:03.638Z,87.50
2023-03-04T10:48:41.021Z,88.20
2023-03-04T10:51:19.662Z,88.80
2023-03-04T10:53:56.222Z,89.20
2023-03-04T10:56:36.413Z,89.80
2023-03-04T10:59:34.372Z,90.20
2023-03-04T11:02:16.501Z,90.90
2023-03-04T11:05:16.546Z,92.60
2023-03-04T11:07:56.773Z,92.30
2023-03-04T11:10:39.012Z,92.90
2023-03-04T11:13:16.979Z,86.00
2023-03-04T11:15:51.961Z,74.70
2023-03-04T11:18:30.772Z,74.60
2023-03-04T11:21:06.812Z,74.40
2023-03-04T11:23:44.482Z,74.30
2023-03-04T11:26:19.741Z,74.30
2023-03-04T11:28:54.716Z,74.30
2023-03-04T11:31:30.633Z,74.30
2023-03-04T11:34:04.992Z,74.80
2023-03-04T11:36:42.720Z,75.00
2023-03-04T11:39:22.002Z,75.10
2023-03-04T11:41:58.916Z,75.30
2023-03-04T11:44:31.044Z,75.20
2023-03-04T11:47:17.909Z,75.10
2023-03-04T11:50:09.544Z,75.50
2023-03-04T11:52:54.766Z,75.90
2023-03-04T11:55:53.920Z,76.10
2023-03-04T11:58:41.631Z,76.30
2023-03-04T12:01:20.749Z,76.70
2023-03-04T12:04:13.528Z,77.20
2023-03-04T12:06:59.064Z,77.70
2023-03-04T12:09:49.068Z,77.90
2023-03-04T12:12:38.223Z,78.00
2023-03-04T12:15:19.322Z,77.90
2023-03-04T12:18:14.133Z,77.90
2023-03-04T12:21:03.678Z,78.20
2023-03-04T12:23:53.387Z,78.30
2023-03-04T12:26:33.966Z,78.50
2023-03-04T12:29:08.824Z,78.40
2023-03-04T12:31:41.866Z,78.40
2023-03-04T12:34:28.742Z,78.40
2023-03-04T12:37:08.029Z,78.30
2023-03-04T12:39:40.579Z,78.10
2023-03-04T12:42:21.515Z,78.20
2023-03-04T12:44:57.001Z,78.50
2023-03-04T12:47:32.429Z,79.30
2023-03-04T12:50:15.758Z,89.60
2023-03-04T12:52:53.228Z,79.50
2023-03-04T12:55:35.446Z,78.50
2023-03-04T12:58:15.850Z,78.30
2023-03-04T13:00:56.936Z,78.50
2023-03-04T13:03:39.918Z,84.80
2023-03-04T13:06:24.095Z,79.80
2023-03-04T13:09:02.439Z,89.90
2023-03-04T13:11:53.328Z,89.70
2023-03-04T13:14:37.188Z,89.00
2023-03-04T13:17:43.279Z,88.40
2023-03-04T13:20:23.224Z,87.80
2023-03-04T13:22:58.146Z,87.00
2023-03-04T13:25:42.007Z,86.60
2023-03-04T13:28:19.207Z,86.80
2023-03-04T13:31:15.263Z,87.60
2023-03-04T13:33:53.889Z,87.30
2023-03-04T13:36:59.584Z,87.30
2023-03-04T13:39:33.367Z,87.20
2023-03-04T13:42:41.491Z,87.30
2023-03-04T13:45:30.596Z,87.50
2023-03-04T13:48:04.966Z,87.60
2023-03-04T13:50:48.142Z,87.60
2023-03-04T13:53:40.810Z,87.60
2023-03-04T13:56:25.388Z,87.00
2023-03-04T13:59:21.014Z,84.80
2023-03-04T14:02:09.395Z,84.50
2023-03-04T14:04:43.254Z,84.40
2023-03-04T14:07:25.532Z,84.40
2023-03-04T14:10:00.522Z,84.30
2023-03-04T14:12:35.219Z,84.40
2023-03-04T14:15:21.125Z,84.30
2023-03-04T14:17:55.025Z,84.30
2023-03-04T14:20:29.207Z,84.40
2023-03-04T14:23:22.172Z,84.40
2023-03-04T14:26:04.917Z,84.60
2023-03-04T14:28:43.805Z,84.70
2023-03-04T14:31:18.675Z,84.80
2023-03-04T14:33:57.279Z,84.80
2023-03-04T14:36:32.299Z,85.00
2023-03-04T14:39:08.435Z,85.00
2023-03-04T14:41:43.467Z,85.00
2023-03-04T14:44:26.146Z,85.10
2023-03-04T14:47:08.213Z,85.30
2023-03-04T14:49:40.816Z,85.20
2023-03-04T14:52:33.556Z,85.20
2023-03-04T14:55:24.487Z,85.30
2023-03-04T14:58:07.446Z,85.50
2023-03-04T15:00:43.243Z,85.60
2023-03-04T15:03:22.760Z,85.60
2023-03-04T15:05:58.592Z,85.80
2023-03-04T15:08:34.986Z,85.80
2023-03-04T15:11:21.898Z,85.80
2023-03-04T15:13:55.757Z,86.10
2023-03-04T15:16:30.588Z,85.70
2023-03-04T15:19:05.975Z,85.60
2023-03-04T15:21:40.957Z,85.40
2023-03-04T15:24:14.552Z,85.30
2023-03-04T15:26:50.544Z,85.30
2023-03-04T15:29:22.878Z,85.50
2023-03-04T15:31:54.906Z,85.60
2023-03-04T15:34:27.875Z,85.70
2023-03-04T15:37:00.120Z,85.80
2023-03-04T15:39:32.853Z,85.80
2023-03-04T15:42:13.437Z,85.90
2023-03-04T15:44:45.706Z,86.00
2023-03-04T15:47:17.829Z,86.10
2023-03-04T15:49:49.826Z,86.20
2023-03-04T15:52:22.574Z,86.10
2023-03-04T15:54:54.691Z,86.30
2023-03-04T15:57:29.432Z,86.50
2023-03-04T16:00:01.614Z,86.50
2023-03-04T16:02:34.465Z,86.30
2023-03-04T16:05:07.738Z,86.40
2023-03-04T16:07:41.491Z,86.60
2023-03-04T16:10:19.244Z,86.70
2023-03-04T16:12:54.343Z,86.90
2023-03-04T16:15:28.646Z,86.80
2023-03-04T16:18:00.693Z,86.90
2023-03-04T16:20:32.692Z,87.00
2023-03-04T16:23:05.428Z,87.10
2023-03-04T16:25:37.452Z,87.30
2023-03-04T16:28:13.398Z,87.30
2023-03-04T16:30:45.449Z,87.50
2023-03-04T16:33:17.685Z,87.90
2023-03-04T16:35:51.643Z,88.50
2023-03-04T16:38:28.181Z,88.60
2023-03-04T16:41:04.553Z,88.60
2023-03-04T16:43:39.367Z,89.00
2023-03-04T16:46:12.510Z,89.20
2023-03-04T16:48:44.555Z,89.30
2023-03-04T16:51:19.586Z,89.40
2023-03-04T16:53:54.844Z,89.50
2023-03-04T16:56:27.752Z,89.10
2023-03-04T16:59:02.422Z,89.50
2023-03-04T17:01:40.132Z,89.40
2023-03-04T17:04:12.348Z,89.30
2023-03-04T17:06:44.885Z,89.40
2023-03-04T17:09:16.959Z,89.50
2023-03-04T17:11:49.152Z,89.50
2023-03-04T17:14:24.052Z,89.60
2023-03-04T17:16:56.055Z,89.80
2023-03-04T17:19:28.200Z,89.80
2023-03-04T17:22:01.829Z,89.90
2023-03-04T17:24:33.802Z,90.00
2023-03-04T17:27:05.840Z,90.00
2023-03-04T17:29:40.580Z,90.00
2023-03-04T17:32:12.575Z,90.00
2023-03-04T17:34:44.684Z,90.10
2023-03-04T17:37:16.867Z,90.30
2023-03-04T17:39:48.956Z,90.20
2023-03-04T17:42:21.329Z,90.40
2023-03-04T17:44:55.994Z,91.20
2023-03-04T17:47:27.984Z,91.70
2023-03-04T17:50:00.008Z,91.90
2023-03-04T17:52:32.115Z,91.90
2023-03-04T17:55:04.655Z,90.30
2023-03-04T17:57:37.617Z,87.10
2023-03-04T18:00:13.983Z,83.50
2023-03-04T18:02:45.931Z,80.60
2023-03-04T18:05:18.108Z,78.20
2023-03-04T18:07:50.064Z,75.90
2023-03-04T18:10:22.124Z,73.90
2023-03-04T18:12:54.183Z,72.80
2023-03-04T18:15:28.920Z,72.30
2023-03-04T18:18:00.683Z,72.20
2023-03-04T18:20:32.753Z,74.10
2023-03-04T18:23:04.736Z,76.50
2023-03-04T18:25:36.781Z,73.30
2023-03-04T18:28:08.857Z,68.40
2023-03-04T18:30:43.540Z,68.00
2023-03-04T18:33:15.735Z,67.80
2023-03-04T18:35:47.913Z,67.50
2023-03-04T18:38:20.832Z,67.30
2023-03-04T18:40:57.106Z,67.10
2023-03-04T18:43:29.194Z,66.90
2023-03-04T18:46:07.103Z,66.70
2023-03-04T18:48:42.910Z,66.60
2023-03-04T18:51:14.915Z,66.50
2023-03-04T18:53:47.888Z,66.30
2023-03-04T18:56:24.336Z,66.30
2023-03-04T18:58:56.371Z,66.10
2023-03-04T19:01:30.934Z,66.00
2023-03-04T19:04:04.750Z,65.80
2023-03-04T19:06:36.884Z,65.70
2023-03-04T19:09:09.048Z,65.60
2023-03-04T19:11:41.034Z,65.50
2023-03-04T19:14:13.035Z,65.40
2023-03-04T19:16:47.697Z,65.20
2023-03-04T19:19:19.791Z,65.00
2023-03-04T19:21:51.576Z,64.90
2023-03-04T19:24:23.338Z,64.80
2023-03-04T19:26:55.257Z,64.70
2023-03-04T19:29:27.158Z,64.80
2023-03-04T19:32:01.579Z,64.80
2023-03-04T19:34:33.410Z,64.70
2023-03-04T19:37:05.272Z,64.60
2023-03-04T19:39:37.115Z,64.70
2023-03-04T19:42:09.156Z,64.60
2023-03-04T19:44:43.695Z,64.50
2023-03-04T19:47:19.124Z,64.50
2023-03-04T19:49:51.032Z,64.50
2023-03-04T19:52:23.221Z,64.40
2023-03-04T19:54:55.064Z,64.30
2023-03-04T19:57:26.897Z,64.20
2023-03-04T19:59:59.103Z,64.10
2023-03-04T20:02:33.702Z,63.90
2023-03-04T20:05:06.288Z,63.80
2023-03-04T20:07:38.110Z,63.70
2023-03-04T20:10:10.886Z,63.70
2023-03-04T20:12:42.739Z,63.50
2023-03-04T20:15:14.580Z,63.50
2023-03-04T20:17:49.012Z,63.40
2023-03-04T20:20:20.806Z,63.30
2023-03-04T20:22:52.594Z,63.30
2023-03-04T20:25:24.923Z,63.40
2023-03-04T20:27:57.687Z,63.40
2023-03-04T20:30:29.532Z,63.40
2023-03-04T20:33:03.981Z,63.50
2023-03-04T20:35:36.057Z,63.50
2023-03-04T20:38:08.182Z,63.40
2023-03-04T20:40:40.588Z,63.50
2023-03-04T20:43:12.414Z,63.20
2023-03-04T20:45:44.215Z,63.20
2023-03-04T20:48:18.612Z,63.30
2023-03-04T20:50:50.399Z,63.20
2023-03-04T20:53:22.235Z,63.20
2023-03-04T20:55:54.019Z,63.30
2023-03-04T20:58:25.810Z,63.30
2023-03-04T21:00:57.720Z,63.40
2023-03-04T21:03:32.129Z,63.40
2023-03-04T21:06:04.398Z,63.40
2023-03-04T21:08:36.430Z,63.40
2023-03-04T21:11:10.193Z,63.40
2023-03-04T21:13:43.172Z,63.30
2023-03-04T21:16:16.327Z,63.20
2023-03-04T21:18:50.919Z,63.20
2023-03-04T21:21:23.887Z,63.20
2023-03-04T21:23:56.471Z,63.00
2023-03-04T21:26:28.305Z,62.90
2023-03-04T21:29:00.176Z,63.30
2023-03-04T21:31:34.830Z,62.70
2023-03-04T21:34:11.677Z,62.70
2023-03-04T21:36:43.631Z,62.60
2023-03-04T21:39:16.780Z,62.60
2023-03-04T21:41:48.612Z,62.50
2023-03-04T21:44:27.891Z,62.20
2023-03-04T21:47:01.636Z,62.00
2023-03-04T21:49:37.756Z,62.50
2023-03-04T21:52:11.000Z,61.80
2023-03-04T21:54:43.207Z,61.70
2023-03-04T21:57:15.333Z,62.20
2023-03-04T21:59:47.316Z,65.60
2023-03-04T22:02:21.411Z,66.30
2023-03-04T22:04:56.034Z,65.60
2023-03-04T22:07:34.922Z,67.00
2023-03-04T22:10:08.035Z,66.80
2023-03-04T22:12:40.014Z,67.00
2023-03-04T22:15:12.516Z,66.90
2023-03-04T22:17:45.828Z,66.90
2023-03-04T22:20:20.643Z,67.50
2023-03-04T22:22:52.667Z,66.60
2023-03-04T22:25:34.678Z,66.60
2023-03-04T22:28:07.491Z,66.60
2023-03-04T22:30:39.848Z,66.70
2023-03-04T22:33:11.830Z,67.00
2023-03-04T22:35:46.394Z,66.70
2023-03-04T22:38:18.443Z,66.70
2023-03-04T22:40:50.497Z,66.70
2023-03-04T22:43:22.532Z,66.70
2023-03-04T22:45:54.541Z,66.70
2023-03-04T22:48:27.100Z,66.80
2023-03-04T22:51:05.533Z,66.60
2023-03-04T22:53:37.953Z,66.70
2023-03-04T22:56:11.510Z,66.70
2023-03-04T22:58:44.872Z,66.70
2023-03-04T23:01:18.518Z,66.70
2023-03-04T23:03:50.784Z,66.70
2023-03-04T23:06:27.883Z,66.80
2023-03-04T23:09:00.587Z,66.80
2023-03-04T23:11:35.554Z,66.80
2023-03-04T23:14:08.697Z,66.80
2023-03-04T23:16:44.626Z,66.80
2023-03-04T23:19:17.649Z,66.80
2023-03-04T23:21:52.286Z,66.90
2023-03-04T23:24:26.673Z,66.90
2023-03-04T23:26:58.816Z,67.50
2023-03-04T23:29:30.893Z,67.10
2023-03-04T23:32:02.878Z,67.10
2023-03-04T23:34:36.582Z,67.10
2023-03-04T23:37:11.119Z,67.70
2023-03-04T23:39:43.131Z,67.10
2023-03-04T23:42:15.538Z,66.90
2023-03-04T23:44:47.542Z,66.80
2023-03-04T23:47:19.652Z,66.90
2023-03-04T23:49:51.812Z,67.00
2023-03-04T23:52:26.533Z,67.00
2023-03-04T23:54:58.574Z,67.10
2023-03-04T23:57:30.704Z,67.10
